sensor_id;sensor_type;location;lat;lon;timestamp;pressure;altitude;pressure_sealevel;temperature;humidity
53522;BME280;39398;48.382;9.802;2023-04-04T00:02:48;94375.88;;;-2.22;80.81
53522;BME280;39398;48.382;9.802;2023-04-04T00:07:51;94364.38;;;-2.05;82.60
53522;BME280;39398;48.382;9.802;2023-04-04T00:12:53;94367.50;;;-2.13;83.72
53522;BME280;39398;48.382;9.802;2023-04-04T00:17:54;94364.56;;;-2.08;83.75
53522;BME280;39398;48.382;9.802;2023-04-04T00:22:57;94358.59;;;-2.34;85.41
53522;BME280;39398;48.382;9.802;2023-04-04T00:27:59;94356.81;;;-2.59;88.69
53522;BME280;39398;48.382;9.802;2023-04-04T00:33:00;94349.38;;;-2.38;88.27
53522;BME280;39398;48.382;9.802;2023-04-04T00:38:03;94347.81;;;-2.66;90.63
53522;BME280;39398;48.382;9.802;2023-04-04T00:43:06;94341.00;;;-2.29;89.80
53522;BME280;39398;48.382;9.802;2023-04-04T00:48:07;94337.06;;;-2.35;91.85
53522;BME280;39398;48.382;9.802;2023-04-04T00:53:10;94339.53;;;-2.59;92.56
53522;BME280;39398;48.382;9.802;2023-04-04T00:58:12;94333.25;;;-2.67;95.84
53522;BME280;39398;48.382;9.802;2023-04-04T01:03:13;94323.81;;;-2.68;94.54
53522;BME280;39398;48.382;9.802;2023-04-04T01:08:20;94333.13;;;-2.78;96.21
53522;BME280;39398;48.382;9.802;2023-04-04T01:13:22;94323.09;;;-2.83;98.45
53522;BME280;39398;48.382;9.802;2023-04-04T01:18:24;94321.22;;;-2.55;95.38
53522;BME280;39398;48.382;9.802;2023-04-04T01:23:34;94314.41;;;-2.82;97.45
53522;BME280;39398;48.382;9.802;2023-04-04T01:28:38;94321.88;;;-2.77;97.10
53522;BME280;39398;48.382;9.802;2023-04-04T01:33:44;94303.88;;;-2.79;96.80
53522;BME280;39398;48.382;9.802;2023-04-04T01:38:52;94303.34;;;-2.59;96.91
53522;BME280;39398;48.382;9.802;2023-04-04T01:43:56;94294.06;;;-2.87;96.60
53522;BME280;39398;48.382;9.802;2023-04-04T01:48:57;94296.13;;;-2.79;97.92
53522;BME280;39398;48.382;9.802;2023-04-04T01:53:59;94290.13;;;-2.54;96.55
53522;BME280;39398;48.382;9.802;2023-04-04T01:59:02;94291.00;;;-3.19;100.00
53522;BME280;39398;48.382;9.802;2023-04-04T02:04:03;94292.03;;;-3.21;100.00
53522;BME280;39398;48.382;9.802;2023-04-04T02:09:05;94295.53;;;-3.10;99.29
53522;BME280;39398;48.382;9.802;2023-04-04T02:14:08;94294.03;;;-2.99;100.00
53522;BME280;39398;48.382;9.802;2023-04-04T02:19:09;94280.03;;;-3.22;100.00
53522;BME280;39398;48.382;9.802;2023-04-04T02:24:11;94282.16;;;-3.02;100.00
53522;BME280;39398;48.382;9.802;2023-04-04T02:29:14;94282.16;;;-3.02;100.00
53522;BME280;39398;48.382;9.802;2023-04-04T02:34:15;94276.97;;;-3.02;100.00
53522;BME280;39398;48.382;9.802;2023-04-04T02:39:17;94284.53;;;-3.39;100.00
53522;BME280;39398;48.382;9.802;2023-04-04T02:44:21;94281.59;;;-3.20;100.00
53522;BME280;39398;48.382;9.802;2023-04-04T02:49:22;94284.09;;;-3.45;100.00
53522;BME280;39398;48.382;9.802;2023-04-04T02:54:24;94285.47;;;-3.40;100.00
53522;BME280;39398;48.382;9.802;2023-04-04T02:59:27;94281.25;;;-3.41;100.00
53522;BME280;39398;48.382;9.802;2023-04-04T03:04:28;94278.47;;;-3.38;100.00
53522;BME280;39398;48.382;9.802;2023-04-04T03:09:30;94275.56;;;-3.73;100.00
53522;BME280;39398;48.382;9.802;2023-04-04T03:14:33;94280.44;;;-3.29;100.00
53522;BME280;39398;48.382;9.802;2023-04-04T03:19:34;94279.41;;;-3.26;100.00
53522;BME280;39398;48.382;9.802;2023-04-04T03:24:36;94273.50;;;-3.41;100.00
53522;BME280;39398;48.382;9.802;2023-04-04T03:29:40;94278.38;;;-3.23;100.00
53522;BME280;39398;48.382;9.802;2023-04-04T03:34:42;94273.97;;;-3.48;100.00
53522;BME280;39398;48.382;9.802;2023-04-04T03:39:44;94279.00;;;-3.60;100.00
53522;BME280;39398;48.382;9.802;2023-04-04T03:44:47;94274.66;;;-3.59;100.00
53522;BME280;39398;48.382;9.802;2023-04-04T03:49:48;94265.22;;;-3.46;100.00
53522;BME280;39398;48.382;9.802;2023-04-04T03:54:50;94262.41;;;-3.56;100.00
53522;BME280;39398;48.382;9.802;2023-04-04T03:59:52;94261.06;;;-3.48;100.00
53522;BME280;39398;48.382;9.802;2023-04-04T04:04:54;94268.59;;;-3.45;100.00
53522;BME280;39398;48.382;9.802;2023-04-04T04:09:55;94264.44;;;-3.61;100.00
53522;BME280;39398;48.382;9.802;2023-04-04T04:14:58;94267.34;;;-3.53;100.00
53522;BME280;39398;48.382;9.802;2023-04-04T04:20:00;94268.38;;;-3.55;100.00
53522;BME280;39398;48.382;9.802;2023-04-04T04:25:01;94274.47;;;-3.56;100.00
53522;BME280;39398;48.382;9.802;2023-04-04T04:30:06;94268.75;;;-3.34;100.00
53522;BME280;39398;48.382;9.802;2023-04-04T04:35:08;94274.34;;;-3.55;100.00
53522;BME280;39398;48.382;9.802;2023-04-04T04:40:10;94275.66;;;-3.47;100.00
53522;BME280;39398;48.382;9.802;2023-04-04T04:45:13;94282.13;;;-3.82;100.00
53522;BME280;39398;48.382;9.802;2023-04-04T04:50:14;94288.03;;;-3.80;100.00
53522;BME280;39398;48.382;9.802;2023-04-04T04:55:16;94286.44;;;-3.55;100.00
53522;BME280;39398;48.382;9.802;2023-04-04T05:00:20;94289.72;;;-3.66;100.00
53522;BME280;39398;48.382;9.802;2023-04-04T05:05:21;94287.38;;;-3.56;100.00
53522;BME280;39398;48.382;9.802;2023-04-04T05:10:23;94287.56;;;-3.59;100.00
53522;BME280;39398;48.382;9.802;2023-04-04T05:15:26;94285.78;;;-3.44;100.00
53522;BME280;39398;48.382;9.802;2023-04-04T05:20:27;94296.88;;;-3.57;98.34
53522;BME280;39398;48.382;9.802;2023-04-04T05:25:29;94285.00;;;-3.59;97.43
53522;BME280;39398;48.382;9.802;2023-04-04T05:30:32;94284.00;;;-3.71;99.40
53522;BME280;39398;48.382;9.802;2023-04-04T05:35:33;94293.84;;;-3.36;96.40
53522;BME280;39398;48.382;9.802;2023-04-04T05:40:35;94294.69;;;-3.23;97.29
53522;BME280;39398;48.382;9.802;2023-04-04T05:45:38;94294.16;;;-3.41;99.32
53522;BME280;39398;48.382;9.802;2023-04-04T05:50:43;94290.53;;;-3.25;95.98
53522;BME280;39398;48.382;9.802;2023-04-04T05:55:45;94298.75;;;-3.19;96.58
53522;BME280;39398;48.382;9.802;2023-04-04T06:00:48;94288.78;;;-2.47;90.81
53522;BME280;39398;48.382;9.802;2023-04-04T06:05:50;94301.81;;;-2.48;89.15
53522;BME280;39398;48.382;9.802;2023-04-04T06:10:52;94288.66;;;-2.20;87.24
53522;BME280;39398;48.382;9.802;2023-04-04T06:15:55;94290.53;;;-2.60;89.78
53522;BME280;39398;48.382;9.802;2023-04-04T06:20:56;94294.28;;;-1.89;86.86
53522;BME280;39398;48.382;9.802;2023-04-04T06:25:58;94299.13;;;-1.84;83.05
53522;BME280;39398;48.382;9.802;2023-04-04T06:31:04;94294.47;;;-1.07;79.73
53522;BME280;39398;48.382;9.802;2023-04-04T06:36:06;94294.63;;;-1.22;79.71
53522;BME280;39398;48.382;9.802;2023-04-04T06:41:07;94295.13;;;-1.41;79.13
53522;BME280;39398;48.382;9.802;2023-04-04T06:46:10;94295.97;;;-0.81;77.39
53522;BME280;39398;48.382;9.802;2023-04-04T06:51:12;94290.47;;;-1.00;77.98
53522;BME280;39398;48.382;9.802;2023-04-04T06:56:14;94297.94;;;-0.84;73.81
53522;BME280;39398;48.382;9.802;2023-04-04T07:01:17;94298.59;;;-0.58;75.83
53522;BME280;39398;48.382;9.802;2023-04-04T07:06:20;94291.06;;;-0.39;74.40
53522;BME280;39398;48.382;9.802;2023-04-04T07:11:24;94286.38;;;-0.11;72.66
53522;BME280;39398;48.382;9.802;2023-04-04T07:16:27;94285.78;;;-0.15;73.10
53522;BME280;39398;48.382;9.802;2023-04-04T07:21:28;94288.72;;;0.26;71.38
53522;BME280;39398;48.382;9.802;2023-04-04T07:26:30;94289.03;;;0.55;70.46
53522;BME280;39398;48.382;9.802;2023-04-04T07:31:33;94291.06;;;0.83;70.00
53522;BME280;39398;48.382;9.802;2023-04-04T07:36:34;94300.91;;;0.57;70.75
53522;BME280;39398;48.382;9.802;2023-04-04T07:41:37;94287.09;;;1.00;70.76
53522;BME280;39398;48.382;9.802;2023-04-04T07:46:40;94290.50;;;0.68;67.24
53522;BME280;39398;48.382;9.802;2023-04-04T07:51:41;94288.22;;;0.86;68.73
53522;BME280;39398;48.382;9.802;2023-04-04T07:56:43;94289.69;;;1.00;71.34
53522;BME280;39398;48.382;9.802;2023-04-04T08:01:46;94286.34;;;1.51;69.06
53522;BME280;39398;48.382;9.802;2023-04-04T08:06:47;94285.78;;;1.27;66.15
53522;BME280;39398;48.382;9.802;2023-04-04T08:11:49;94282.47;;;1.46;64.94
53522;BME280;39398;48.382;9.802;2023-04-04T08:16:52;94288.66;;;2.37;61.26
53522;BME280;39398;48.382;9.802;2023-04-04T08:21:53;94291.03;;;2.09;57.26
53522;BME280;39398;48.382;9.802;2023-04-04T08:26:55;94290.66;;;2.23;58.02
53522;BME280;39398;48.382;9.802;2023-04-04T08:32:07;94303.00;;;0.75;66.68
53522;BME280;39398;48.382;9.802;2023-04-04T08:37:08;94297.78;;;1.39;61.33
53522;BME280;39398;48.382;9.802;2023-04-04T08:42:11;94299.63;;;2.00;56.24
53522;BME280;39398;48.382;9.802;2023-04-04T08:47:15;94288.38;;;2.30;57.13
53522;BME280;39398;48.382;9.802;2023-04-04T08:52:19;94288.81;;;2.04;55.39
53522;BME280;39398;48.382;9.802;2023-04-04T08:57:22;94283.38;;;3.55;54.36
53522;BME280;39398;48.382;9.802;2023-04-04T09:02:29;94293.38;;;2.52;51.92
53522;BME280;39398;48.382;9.802;2023-04-04T09:07:34;94299.69;;;2.60;53.85
53522;BME280;39398;48.382;9.802;2023-04-04T09:12:42;94302.69;;;2.65;52.01
53522;BME280;39398;48.382;9.802;2023-04-04T09:17:45;94298.63;;;2.82;54.03
53522;BME280;39398;48.382;9.802;2023-04-04T09:22:47;94294.66;;;3.07;52.76
53522;BME280;39398;48.382;9.802;2023-04-04T09:27:50;94307.84;;;2.36;60.89
53522;BME280;39398;48.382;9.802;2023-04-04T09:32:53;94296.28;;;2.78;50.74
53522;BME280;39398;48.382;9.802;2023-04-04T09:37:55;94300.28;;;2.32;55.87
53522;BME280;39398;48.382;9.802;2023-04-04T09:42:59;94298.44;;;0.99;64.93
53522;BME280;39398;48.382;9.802;2023-04-04T09:48:03;94301.88;;;1.62;67.38
53522;BME280;39398;48.382;9.802;2023-04-04T09:53:06;94302.47;;;1.66;62.86
53522;BME280;39398;48.382;9.802;2023-04-04T09:58:12;94321.56;;;1.76;58.13
53522;BME280;39398;48.382;9.802;2023-04-04T10:03:16;94319.63;;;2.30;59.67
53522;BME280;39398;48.382;9.802;2023-04-04T10:08:20;94316.88;;;2.01;55.17
53522;BME280;39398;48.382;9.802;2023-04-04T10:13:23;94324.78;;;2.61;57.72
53522;BME280;39398;48.382;9.802;2023-04-04T10:18:28;94317.25;;;2.67;56.17
53522;BME280;39398;48.382;9.802;2023-04-04T10:23:30;94317.13;;;1.46;62.57
53522;BME280;39398;48.382;9.802;2023-04-04T10:28:32;94315.19;;;2.71;53.27
53522;BME280;39398;48.382;9.802;2023-04-04T10:33:40;94309.97;;;1.90;62.42
53522;BME280;39398;48.382;9.802;2023-04-04T10:38:50;94310.41;;;2.76;53.50
53522;BME280;39398;48.382;9.802;2023-04-04T10:43:59;94302.50;;;3.07;64.54
53522;BME280;39398;48.382;9.802;2023-04-04T10:49:02;94302.13;;;1.59;57.62
53522;BME280;39398;48.382;9.802;2023-04-04T10:54:05;94308.28;;;2.10;55.40
53522;BME280;39398;48.382;9.802;2023-04-04T10:59:11;94302.63;;;1.95;59.37
53522;BME280;39398;48.382;9.802;2023-04-04T11:04:18;94297.63;;;1.82;60.85
53522;BME280;39398;48.382;9.802;2023-04-04T11:09:49;94295.53;;;1.13;58.34
53522;BME280;39398;48.382;9.802;2023-04-04T11:14:56;94295.75;;;1.94;60.77
53522;BME280;39398;48.382;9.802;2023-04-04T11:19:59;94277.56;;;2.44;62.80
53522;BME280;39398;48.382;9.802;2023-04-04T11:25:24;94285.06;;;1.46;59.79
53522;BME280;39398;48.382;9.802;2023-04-04T11:30:27;94278.34;;;2.35;62.13
53522;BME280;39398;48.382;9.802;2023-04-04T11:35:30;94294.72;;;2.06;60.56
53522;BME280;39398;48.382;9.802;2023-04-04T11:40:39;94295.78;;;2.44;61.93
53522;BME280;39398;48.382;9.802;2023-04-04T11:45:44;94292.59;;;3.00;57.80
53522;BME280;39398;48.382;9.802;2023-04-04T11:50:48;94284.03;;;2.60;58.28
53522;BME280;39398;48.382;9.802;2023-04-04T11:55:49;94303.78;;;2.52;62.03
53522;BME280;39398;48.382;9.802;2023-04-04T12:00:51;94286.28;;;1.93;61.51
53522;BME280;39398;48.382;9.802;2023-04-04T12:05:56;94282.56;;;2.26;56.01
53522;BME280;39398;48.382;9.802;2023-04-04T12:11:03;94276.25;;;3.08;56.46
53522;BME280;39398;48.382;9.802;2023-04-04T12:16:07;94275.34;;;1.99;55.08
53522;BME280;39398;48.382;9.802;2023-04-04T12:21:10;94265.53;;;2.72;60.80
53522;BME280;39398;48.382;9.802;2023-04-04T12:26:11;94278.63;;;2.42;59.91
53522;BME280;39398;48.382;9.802;2023-04-04T12:31:14;94271.88;;;3.09;58.75
53522;BME280;39398;48.382;9.802;2023-04-04T12:36:17;94268.53;;;2.77;56.93
53522;BME280;39398;48.382;9.802;2023-04-04T12:41:19;94262.13;;;3.01;51.38
53522;BME280;39398;48.382;9.802;2023-04-04T12:46:25;94264.69;;;3.49;53.58
53522;BME280;39398;48.382;9.802;2023-04-04T12:51:31;94262.22;;;3.48;49.63
53522;BME280;39398;48.382;9.802;2023-04-04T12:56:34;94270.00;;;3.77;48.18
53522;BME280;39398;48.382;9.802;2023-04-04T13:01:36;94256.41;;;3.73;53.14
53522;BME280;39398;48.382;9.802;2023-04-04T13:06:39;94252.09;;;3.35;52.77
53522;BME280;39398;48.382;9.802;2023-04-04T13:12:05;94251.03;;;3.75;48.58
53522;BME280;39398;48.382;9.802;2023-04-04T13:17:07;94255.66;;;3.91;47.74
53522;BME280;39398;48.382;9.802;2023-04-04T13:22:10;94251.22;;;3.64;45.91
53522;BME280;39398;48.382;9.802;2023-04-04T13:27:11;94245.13;;;3.73;44.50
53522;BME280;39398;48.382;9.802;2023-04-04T13:32:13;94245.84;;;3.65;51.19
53522;BME280;39398;48.382;9.802;2023-04-04T13:37:16;94239.44;;;3.40;46.23
53522;BME280;39398;48.382;9.802;2023-04-04T13:42:17;94241.81;;;4.08;47.98
53522;BME280;39398;48.382;9.802;2023-04-04T13:47:19;94238.16;;;4.01;52.60
53522;BME280;39398;48.382;9.802;2023-04-04T13:52:22;94240.06;;;4.09;52.90
53522;BME280;39398;48.382;9.802;2023-04-04T13:57:23;94234.13;;;3.69;54.61
53522;BME280;39398;48.382;9.802;2023-04-04T14:02:25;94239.00;;;3.92;50.63
53522;BME280;39398;48.382;9.802;2023-04-04T14:07:28;94234.63;;;4.20;49.60
53522;BME280;39398;48.382;9.802;2023-04-04T14:12:29;94226.97;;;3.81;48.72
53522;BME280;39398;48.382;9.802;2023-04-04T14:17:31;94226.91;;;3.91;48.16
53522;BME280;39398;48.382;9.802;2023-04-04T14:22:34;94218.59;;;3.78;52.75
53522;BME280;39398;48.382;9.802;2023-04-04T14:27:36;94224.84;;;4.22;53.41
53522;BME280;39398;48.382;9.802;2023-04-04T14:32:37;94216.78;;;4.15;47.27
53522;BME280;39398;48.382;9.802;2023-04-04T14:37:40;94225.97;;;4.47;51.32
53522;BME280;39398;48.382;9.802;2023-04-04T14:42:41;94222.03;;;4.33;50.10
53522;BME280;39398;48.382;9.802;2023-04-04T14:47:43;94221.91;;;4.35;49.65
53522;BME280;39398;48.382;9.802;2023-04-04T14:52:46;94205.06;;;4.47;48.85
53522;BME280;39398;48.382;9.802;2023-04-04T14:57:48;94201.78;;;4.63;50.38
53522;BME280;39398;48.382;9.802;2023-04-04T15:03:02;94205.94;;;4.10;54.18
53522;BME280;39398;48.382;9.802;2023-04-04T15:08:08;94205.88;;;4.65;50.01
53522;BME280;39398;48.382;9.802;2023-04-04T15:13:10;94204.22;;;4.64;46.77
53522;BME280;39398;48.382;9.802;2023-04-04T15:18:11;94193.38;;;4.41;48.45
53522;BME280;39398;48.382;9.802;2023-04-04T15:23:14;94195.34;;;3.84;53.62
53522;BME280;39398;48.382;9.802;2023-04-04T15:28:16;94197.75;;;4.23;47.84
53522;BME280;39398;48.382;9.802;2023-04-04T15:33:18;94196.97;;;3.85;49.06
53522;BME280;39398;48.382;9.802;2023-04-04T15:38:20;94205.34;;;3.89;52.81
53522;BME280;39398;48.382;9.802;2023-04-04T15:43:23;94204.75;;;3.95;54.63
53522;BME280;39398;48.382;9.802;2023-04-04T15:48:24;94191.94;;;3.74;56.95
53522;BME280;39398;48.382;9.802;2023-04-04T15:53:27;94199.19;;;3.43;52.82
53522;BME280;39398;48.382;9.802;2023-04-04T15:58:29;94195.53;;;4.01;51.78
53522;BME280;39398;48.382;9.802;2023-04-04T16:03:31;94203.25;;;4.20;51.98
53522;BME280;39398;48.382;9.802;2023-04-04T16:08:33;94203.06;;;4.04;46.73
53522;BME280;39398;48.382;9.802;2023-04-04T16:13:35;94201.72;;;4.00;47.44
53522;BME280;39398;48.382;9.802;2023-04-04T16:18:36;94202.31;;;3.93;48.99
53522;BME280;39398;48.382;9.802;2023-04-04T16:23:39;94207.94;;;3.89;47.72
53522;BME280;39398;48.382;9.802;2023-04-04T16:28:41;94204.00;;;4.12;49.13
53522;BME280;39398;48.382;9.802;2023-04-04T16:33:44;94200.44;;;3.76;50.05
53522;BME280;39398;48.382;9.802;2023-04-04T16:38:47;94199.06;;;4.09;48.54
53522;BME280;39398;48.382;9.802;2023-04-04T16:43:48;94193.78;;;3.91;48.73
53522;BME280;39398;48.382;9.802;2023-04-04T16:48:50;94197.75;;;3.95;49.40
53522;BME280;39398;48.382;9.802;2023-04-04T16:53:53;94193.00;;;3.81;49.37
53522;BME280;39398;48.382;9.802;2023-04-04T16:58:54;94186.63;;;3.93;49.91
53522;BME280;39398;48.382;9.802;2023-04-04T17:03:56;94186.88;;;3.63;49.42
53522;BME280;39398;48.382;9.802;2023-04-04T17:08:59;94182.63;;;3.62;48.58
53522;BME280;39398;48.382;9.802;2023-04-04T17:14:01;94186.44;;;3.30;49.04
53522;BME280;39398;48.382;9.802;2023-04-04T17:19:03;94178.56;;;3.49;48.89
53522;BME280;39398;48.382;9.802;2023-04-04T17:24:06;94177.31;;;3.44;48.73
53522;BME280;39398;48.382;9.802;2023-04-04T17:29:07;94180.66;;;3.36;48.41
53522;BME280;39398;48.382;9.802;2023-04-04T17:34:09;94177.25;;;3.26;48.91
53522;BME280;39398;48.382;9.802;2023-04-04T17:39:14;94168.06;;;3.59;48.71
53522;BME280;39398;48.382;9.802;2023-04-04T17:44:17;94163.66;;;3.22;49.36
53522;BME280;39398;48.382;9.802;2023-04-04T17:49:19;94167.22;;;3.21;50.81
53522;BME280;39398;48.382;9.802;2023-04-04T17:54:22;94169.75;;;3.03;50.29
53522;BME280;39398;48.382;9.802;2023-04-04T17:59:24;94160.69;;;2.88;52.05
53522;BME280;39398;48.382;9.802;2023-04-04T18:04:25;94162.63;;;2.86;51.54
53522;BME280;39398;48.382;9.802;2023-04-04T18:09:28;94159.91;;;2.78;51.29
53522;BME280;39398;48.382;9.802;2023-04-04T18:14:29;94171.97;;;2.79;51.77
53522;BME280;39398;48.382;9.802;2023-04-04T18:19:31;94180.59;;;2.70;52.62
53522;BME280;39398;48.382;9.802;2023-04-04T18:24:34;94182.13;;;2.63;51.04
53522;BME280;39398;48.382;9.802;2023-04-04T18:29:35;94181.69;;;2.67;51.30
53522;BME280;39398;48.382;9.802;2023-04-04T18:34:37;94178.28;;;2.57;50.63
53522;BME280;39398;48.382;9.802;2023-04-04T18:39:40;94180.97;;;2.36;50.55
53522;BME280;39398;48.382;9.802;2023-04-04T18:44:41;94188.94;;;2.35;51.93
53522;BME280;39398;48.382;9.802;2023-04-04T18:49:43;94188.66;;;2.28;51.82
53522;BME280;39398;48.382;9.802;2023-04-04T18:54:46;94185.38;;;2.36;52.13
53522;BME280;39398;48.382;9.802;2023-04-04T18:59:47;94193.59;;;2.31;51.48
53522;BME280;39398;48.382;9.802;2023-04-04T19:04:51;94194.00;;;2.36;51.78
53522;BME280;39398;48.382;9.802;2023-04-04T19:09:55;94190.59;;;2.36;53.61
53522;BME280;39398;48.382;9.802;2023-04-04T19:14:57;94194.84;;;2.27;52.41
53522;BME280;39398;48.382;9.802;2023-04-04T19:19:59;94194.09;;;2.05;52.90
53522;BME280;39398;48.382;9.802;2023-04-04T19:25:02;94195.22;;;2.13;53.20
53522;BME280;39398;48.382;9.802;2023-04-04T19:35:46;94190.66;;;1.95;53.58
53522;BME280;39398;48.382;9.802;2023-04-04T19:40:52;94194.81;;;1.67;53.35
53522;BME280;39398;48.382;9.802;2023-04-04T19:45:56;94193.22;;;1.85;52.59
53522;BME280;39398;48.382;9.802;2023-04-04T19:50:57;94194.66;;;1.69;53.84
53522;BME280;39398;48.382;9.802;2023-04-04T19:56:02;94196.28;;;1.60;53.07
53522;BME280;39398;48.382;9.802;2023-04-04T20:01:07;94192.06;;;1.69;54.32
53522;BME280;39398;48.382;9.802;2023-04-04T20:06:10;94204.97;;;1.70;53.28
53522;BME280;39398;48.382;9.802;2023-04-04T20:11:15;94200.66;;;1.59;52.82
53522;BME280;39398;48.382;9.802;2023-04-04T20:16:17;94202.09;;;1.43;52.99
53522;BME280;39398;48.382;9.802;2023-04-04T20:21:20;94204.16;;;1.49;53.43
53522;BME280;39398;48.382;9.802;2023-04-04T20:26:48;94200.44;;;1.21;54.94
53522;BME280;39398;48.382;9.802;2023-04-04T20:31:52;94207.34;;;0.68;56.03
53522;BME280;39398;48.382;9.802;2023-04-04T20:36:54;94198.59;;;0.49;58.14
53522;BME280;39398;48.382;9.802;2023-04-04T20:41:56;94209.16;;;0.25;60.07
53522;BME280;39398;48.382;9.802;2023-04-04T20:46:58;94212.78;;;-0.21;63.34
53522;BME280;39398;48.382;9.802;2023-04-04T20:51:59;94213.16;;;-0.37;64.64
53522;BME280;39398;48.382;9.802;2023-04-04T20:57:03;94213.25;;;-0.39;65.64
53522;BME280;39398;48.382;9.802;2023-04-04T21:02:12;94212.19;;;-0.36;66.02
53522;BME280;39398;48.382;9.802;2023-04-04T21:07:33;94210.66;;;-0.28;64.71
53522;BME280;39398;48.382;9.802;2023-04-04T21:12:36;94208.09;;;-0.28;64.50
53522;BME280;39398;48.382;9.802;2023-04-04T21:17:38;94209.28;;;-0.32;64.62
53522;BME280;39398;48.382;9.802;2023-04-04T21:22:40;94203.72;;;-0.50;65.70
53522;BME280;39398;48.382;9.802;2023-04-04T21:27:42;94202.88;;;-0.73;67.86
53522;BME280;39398;48.382;9.802;2023-04-04T21:32:44;94197.25;;;-0.66;67.57
53522;BME280;39398;48.382;9.802;2023-04-04T21:37:45;94201.44;;;-0.77;67.96
53522;BME280;39398;48.382;9.802;2023-04-04T21:42:48;94205.00;;;-0.78;68.08
53522;BME280;39398;48.382;9.802;2023-04-04T21:47:50;94202.50;;;-0.90;68.25
53522;BME280;39398;48.382;9.802;2023-04-04T21:52:51;94202.72;;;-0.94;68.88
53522;BME280;39398;48.382;9.802;2023-04-04T21:57:54;94202.03;;;-0.84;68.58
53522;BME280;39398;48.382;9.802;2023-04-04T22:02:56;94204.88;;;-0.99;69.52
53522;BME280;39398;48.382;9.802;2023-04-04T22:07:57;94204.28;;;-0.91;69.71
53522;BME280;39398;48.382;9.802;2023-04-04T22:13:00;94208.16;;;-0.97;70.21
53522;BME280;39398;48.382;9.802;2023-04-04T22:18:02;94205.41;;;-1.06;70.74
53522;BME280;39398;48.382;9.802;2023-04-04T22:23:04;94197.63;;;-1.18;72.30
53522;BME280;39398;48.382;9.802;2023-04-04T22:28:07;94207.13;;;-1.29;74.00
53522;BME280;39398;48.382;9.802;2023-04-04T22:33:09;94195.31;;;-1.45;74.46
53522;BME280;39398;48.382;9.802;2023-04-04T22:38:10;94196.09;;;-1.55;76.09
53522;BME280;39398;48.382;9.802;2023-04-04T22:43:13;94195.13;;;-1.66;77.45
53522;BME280;39398;48.382;9.802;2023-04-04T22:48:15;94184.78;;;-1.66;nan
53522;BME280;39398;48.382;9.802;2023-04-04T22:53:16;94187.16;;;-1.51;77.00
53522;BME280;39398;48.382;9.802;2023-04-04T22:58:19;94186.00;;;-1.47;76.85
53522;BME280;39398;48.382;9.802;2023-04-04T23:03:21;94178.06;;;-1.57;77.44
53522;BME280;39398;48.382;9.802;2023-04-04T23:08:23;94180.06;;;-1.60;77.41
53522;BME280;39398;48.382;9.802;2023-04-04T23:13:25;94177.38;;;-1.59;77.89
53522;BME280;39398;48.382;9.802;2023-04-04T23:18:27;94180.34;;;-1.52;78.20
53522;BME280;39398;48.382;9.802;2023-04-04T23:23:28;94180.03;;;-1.72;79.20
53522;BME280;39398;48.382;9.802;2023-04-04T23:28:31;94176.75;;;-1.98;81.11
53522;BME280;39398;48.382;9.802;2023-04-04T23:33:33;94181.75;;;-1.83;80.54
53522;BME280;39398;48.382;9.802;2023-04-04T23:38:34;94174.34;;;-1.77;79.95
53522;BME280;39398;48.382;9.802;2023-04-04T23:43:37;94170.38;;;-1.70;79.33
53522;BME280;39398;48.382;9.802;2023-04-04T23:48:39;94159.09;;;-1.69;78.99
53522;BME280;39398;48.382;9.802;2023-04-04T23:53:41;94158.38;;;-1.71;78.83
53522;BME280;39398;48.382;9.802;2023-04-04T23:58:44;94152.16;;;-1.68;78.50
